Vale, Oregon
Current Conditions -  °F | °C
As of 11:25 AM on Friday 28 Nov 2014 (Local Time) from KONO Reporting Station
Haze Haze  
Wind Chill: 42°   Ceiling: 200
Heat Index: 42°   Visibility: 1.2mi
Dew Point: 41°   Wind: 3mph
Humidity: 96%   Direction: 210°SSW
Pressure: 29.82"   Gusts: NA
Location:  43.98°N, 117.24°W
Report Text: KONO 281825Z AUTO 21003KT 1 1/4SM BR OVC002 06/05 A2982 RMK AO2 T00560050
Loading
Personal Weather Stations






























Interactive Weather Map New forecast layout! Learn more

10-Day Weather Forecast

Advertisements
Track Severe Weather on mobile